Aviation Digital Data Service (ADDS)

Output produced by METARs form (1331 UTC 25 June 2019)
found at http://www.aviationweather.gov/metar/data/
 
EDDN 251320Z VRB04KT CAVOK 33/14 Q1021 NOSIG
EDDN 251250Z VRB04KT CAVOK 32/14 Q1021 NOSIG
EDDN 251220Z VRB05KT CAVOK 32/15 Q1021 NOSIG
EDDN 251150Z 08005KT 050V160 CAVOK 32/16 Q1021 NOSIG
EDDN 251120Z VRB04KT CAVOK 31/15 Q1021 NOSIG
EDDN 251050Z 13006KT 070V190 CAVOK 30/15 Q1021 NOSIG
EDDN 251020Z 15006KT 100V210 CAVOK 30/15 Q1021 NOSIG
EDDN 250950Z 14006KT 060V210 CAVOK 30/15 Q1021 NOSIG
EDDN 250920Z 14007KT 080V200 CAVOK 29/16 Q1021 NOSIG
EDDN 250850Z 13008KT 090V180 CAVOK 28/16 Q1021 NOSIG
EDDN 250820Z 13009KT 090V150 CAVOK 27/15 Q1021 NOSIG
EDDN 250750Z 13010KT CAVOK 26/15 Q1021 NOSIG
TAF EDDN 251100Z 2512/2612 14006KT CAVOK 
     BECMG 2517/2519 VRB03KT